D95

Dupont-Lapeer Airport

Lapeer, Michigan, USA
METAR KD95 232235Z AUTO 14007KT 10SM CLR 20/04 A3015 RMK AO2 T01960040
Observed Flight Rules
Apr-23 @ 22:35 UTC (17 minutes ago) Visual Flight Rules
Wind Visibility Clouds
140° at 7 knots 10 miles
  • Clear skies
Temperatures Readings
Current 20°C / 68°F
Dewpoint 4°C / 39°F
Humidity 35%
Altimeter 30.15" Hg
Pressure 1021 hPa
Elevation 255
METAR KD95 232235Z AUTO 14007KT 10SM CLR 20/04 A3015 RMK AO2 T01960040
Observed Flight Rules
Apr-23 @ 22:35 UTC
(17 minutes ago)
VFR
Wind Visibility
140° at 7 knots 10 miles
Clouds
  • Clear skies
Temperature Dewpoint
20°C / 68°F 4°C / 39°F
Humidity Altimeter Pressure
35% 30.15" Hg 1021 hPa